createdAt,value
2023-05-04T00:02:09.053Z,99376.34
2023-05-04T00:04:35.777Z,99367.84
2023-05-04T00:07:02.504Z,99370.88
2023-05-04T00:09:29.121Z,99366.19
2023-05-04T00:11:55.768Z,99364.56
2023-05-04T00:14:23.758Z,99360.69
2023-05-04T00:16:50.550Z,99361.09
2023-05-04T00:19:19.485Z,99358.34
2023-05-04T00:21:46.518Z,99356.03
2023-05-04T00:24:13.137Z,99351.88
2023-05-04T00:26:39.987Z,99361.75
2023-05-04T00:29:06.778Z,99351.47
2023-05-04T00:31:34.813Z,99358.97
2023-05-04T00:34:01.921Z,99350.69
2023-05-04T00:36:28.651Z,99355.38
2023-05-04T00:38:55.584Z,99357.56
2023-05-04T00:41:22.557Z,99357.94
2023-05-04T00:43:49.694Z,99351.69
2023-05-04T00:46:16.567Z,99355.19
2023-05-04T00:48:47.132Z,99352.00
2023-05-04T00:51:14.762Z,99352.66
2023-05-04T00:53:41.405Z,99351.19
2023-05-04T00:56:08.152Z,99351.44
2023-05-04T00:58:35.225Z,99344.47
2023-05-04T01:01:03.419Z,99346.66
2023-05-04T01:03:31.203Z,99343.84
2023-05-04T01:06:05.080Z,99336.66
2023-05-04T01:08:32.685Z,99336.56
2023-05-04T01:11:03.727Z,99332.69
2023-05-04T01:13:31.033Z,99336.31
2023-05-04T01:15:57.667Z,99322.91
2023-05-04T01:18:24.364Z,99323.13
2023-05-04T01:20:51.532Z,99323.47
2023-05-04T01:23:19.834Z,99326.31
2023-05-04T01:25:49.524Z,99316.63
2023-05-04T01:28:18.537Z,99315.47
2023-05-04T01:30:48.795Z,99319.47
2023-05-04T01:33:16.474Z,99322.13
2023-05-04T01:35:43.192Z,99319.34
2023-05-04T01:38:09.865Z,99311.41
2023-05-04T01:40:37.841Z,99318.53
2023-05-04T01:43:04.698Z,99313.38
2023-05-04T01:45:31.399Z,99318.91
2023-05-04T01:47:58.782Z,99313.75
2023-05-04T01:50:25.649Z,99315.16
2023-05-04T01:52:52.283Z,99317.25
2023-05-04T01:55:18.948Z,99323.38
2023-05-04T01:57:47.023Z,99317.44
2023-05-04T02:00:15.099Z,99314.53
2023-05-04T02:02:44.932Z,99320.50
2023-05-04T02:05:16.007Z,99320.59
2023-05-04T02:07:42.712Z,99315.06
2023-05-04T02:10:09.592Z,99311.00
2023-05-04T02:12:36.501Z,99315.31
2023-05-04T02:15:04.858Z,99311.44
2023-05-04T02:17:31.559Z,99315.47
2023-05-04T02:19:58.205Z,99307.69
2023-05-04T02:22:24.894Z,99311.72
2023-05-04T02:24:52.852Z,99306.16
2023-05-04T02:27:20.477Z,99306.47
2023-05-04T02:29:47.083Z,99299.28
2023-05-04T02:32:15.188Z,99294.25
2023-05-04T02:34:41.839Z,99297.16
2023-05-04T02:37:08.441Z,99303.09
2023-05-04T02:39:35.242Z,99299.06
2023-05-04T02:42:03.233Z,99293.94
2023-05-04T02:44:29.839Z,99297.00
2023-05-04T02:46:56.908Z,99301.66
2023-05-04T02:49:24.988Z,99293.22
2023-05-04T02:51:51.779Z,99296.66
2023-05-04T02:54:18.418Z,99292.78
2023-05-04T02:56:45.073Z,99293.25
2023-05-04T02:59:11.772Z,99296.19
2023-05-04T03:01:38.542Z,99287.22
2023-05-04T03:04:06.846Z,99294.94
2023-05-04T03:06:34.833Z,99303.75
2023-05-04T03:09:01.449Z,99300.03
2023-05-04T03:11:28.145Z,99297.41
2023-05-04T03:13:54.753Z,99304.69
2023-05-04T03:16:21.707Z,99301.53
2023-05-04T03:18:50.548Z,99302.66
2023-05-04T03:21:17.210Z,99296.44
2023-05-04T03:23:45.344Z,99301.03
2023-05-04T03:26:12.147Z,99293.41
2023-05-04T03:28:38.755Z,99287.81
2023-05-04T03:31:05.860Z,99282.94
2023-05-04T03:33:32.578Z,99281.94
2023-05-04T03:35:59.262Z,99280.03
2023-05-04T03:38:26.184Z,99266.66
2023-05-04T03:40:56.539Z,99271.06
2023-05-04T03:43:23.461Z,99262.03
2023-05-04T03:45:50.116Z,99258.56
2023-05-04T03:48:17.621Z,99261.91
2023-05-04T03:50:44.231Z,99254.63
2023-05-04T03:53:10.856Z,99261.19
2023-05-04T03:55:39.114Z,99254.97
2023-05-04T03:58:07.282Z,99264.97
2023-05-04T04:00:34.146Z,99261.25
2023-05-04T04:03:09.269Z,99257.53
2023-05-04T04:05:37.223Z,99266.84
2023-05-04T04:08:03.920Z,99258.72
2023-05-04T04:10:31.457Z,99262.75
2023-05-04T04:12:58.086Z,99265.84
2023-05-04T04:15:26.990Z,99275.00
2023-05-04T04:17:53.762Z,99258.91
2023-05-04T04:20:20.408Z,99267.22
2023-05-04T04:22:47.068Z,99274.59
2023-05-04T04:25:13.715Z,99278.16
2023-05-04T04:27:41.293Z,99273.47
2023-05-04T04:30:08.517Z,99277.47
2023-05-04T04:32:37.555Z,99276.69
2023-05-04T04:35:04.776Z,99272.31
2023-05-04T04:37:31.501Z,99271.66
2023-05-04T04:39:58.172Z,99271.34
2023-05-04T04:42:24.782Z,99272.56
2023-05-04T04:44:52.392Z,99272.13
2023-05-04T04:47:19.115Z,99279.22
2023-05-04T04:49:47.808Z,99278.59
2023-05-04T04:52:15.591Z,99269.88
2023-05-04T04:54:42.386Z,99274.75
2023-05-04T04:57:09.863Z,99271.88
2023-05-04T04:59:38.117Z,99281.19
2023-05-04T05:02:05.026Z,99281.88
2023-05-04T05:04:31.698Z,99283.19
2023-05-04T05:06:59.919Z,99278.16
2023-05-04T05:09:26.514Z,99284.78
2023-05-04T05:11:53.226Z,99279.16
2023-05-04T05:14:19.814Z,99282.66
2023-05-04T05:16:46.481Z,99275.13
2023-05-04T05:19:13.416Z,99279.78
2023-05-04T05:21:40.097Z,99276.81
2023-05-04T05:24:08.100Z,99287.19
2023-05-04T05:26:34.713Z,99288.53
2023-05-04T05:29:01.377Z,99284.63
2023-05-04T05:31:28.413Z,99288.56
2023-05-04T05:33:55.230Z,99288.41
2023-05-04T05:36:22.324Z,99284.66
2023-05-04T05:38:50.360Z,99289.19
2023-05-04T05:41:19.022Z,99278.81
2023-05-04T05:43:45.689Z,99285.50
2023-05-04T05:46:12.361Z,99289.91
2023-05-04T05:48:39.038Z,99283.63
2023-05-04T05:51:05.653Z,99288.09
2023-05-04T05:53:32.238Z,99286.31
2023-05-04T05:55:59.223Z,99282.06
2023-05-04T05:58:27.313Z,99282.03
2023-05-04T06:00:54.061Z,99286.06
2023-05-04T06:03:20.884Z,99286.28
2023-05-04T06:05:47.810Z,99285.91
2023-05-04T06:08:14.615Z,99278.94
2023-05-04T06:10:41.313Z,99288.13
2023-05-04T06:13:07.991Z,99294.66
2023-05-04T06:15:36.629Z,99295.69
2023-05-04T06:18:03.505Z,99294.97
2023-05-04T06:20:30.551Z,99296.34
2023-05-04T06:22:57.261Z,99285.81
2023-05-04T06:25:23.917Z,99288.69
2023-05-04T06:27:51.483Z,99283.13
2023-05-04T06:30:18.357Z,99286.22
2023-05-04T06:32:47.081Z,99280.94
2023-05-04T06:35:13.863Z,99286.72
2023-05-04T06:37:40.736Z,99280.50
2023-05-04T06:40:08.024Z,99279.91
2023-05-04T06:42:34.969Z,99276.97
2023-05-04T06:45:02.020Z,99272.56
2023-05-04T06:47:28.732Z,99267.47
2023-05-04T06:49:57.831Z,99276.16
2023-05-04T06:52:24.555Z,99278.69
2023-05-04T06:54:51.394Z,99274.66
2023-05-04T06:57:18.064Z,99284.00
2023-05-04T06:59:44.694Z,99289.00
2023-05-04T07:02:11.397Z,99292.69
2023-05-04T07:04:38.530Z,99284.00
2023-05-04T07:07:06.722Z,99280.69
2023-05-04T07:09:33.376Z,99273.50
2023-05-04T07:12:00.080Z,99274.59
2023-05-04T07:14:26.751Z,99264.72
2023-05-04T07:16:53.434Z,99262.66
2023-05-04T07:19:20.034Z,99265.59
2023-05-04T07:21:47.429Z,99272.38
2023-05-04T07:24:15.424Z,99274.28
2023-05-04T07:26:42.068Z,99273.91
2023-05-04T07:29:09.673Z,99271.44
2023-05-04T07:31:36.709Z,99277.22
2023-05-04T07:34:03.488Z,99272.63
2023-05-04T07:36:30.267Z,99266.44
2023-05-04T07:38:56.937Z,99262.91
2023-05-04T07:41:24.964Z,99261.31
2023-05-04T07:43:51.600Z,99268.13
2023-05-04T07:46:18.235Z,99268.13
2023-05-04T07:48:45.098Z,99268.94
2023-05-04T07:51:15.265Z,99268.13
2023-05-04T07:53:43.234Z,99266.69
2023-05-04T07:56:11.371Z,99265.66
2023-05-04T07:58:39.813Z,99262.97
2023-05-04T08:01:06.445Z,99271.44
2023-05-04T08:03:33.096Z,99261.91
2023-05-04T08:05:59.728Z,99264.56
2023-05-04T08:08:27.110Z,99257.97
2023-05-04T08:10:56.196Z,99254.63
2023-05-04T08:13:27.331Z,99249.47
2023-05-04T08:16:00.831Z,99257.22
2023-05-04T08:18:28.334Z,99247.06
2023-05-04T08:20:54.948Z,99245.91
2023-05-04T08:23:21.662Z,99243.66
2023-05-04T08:25:48.325Z,99250.53
2023-05-04T08:28:15.733Z,99238.13
2023-05-04T08:30:42.665Z,99229.69
2023-05-04T08:33:10.674Z,99229.06
2023-05-04T08:35:38.026Z,99229.22
2023-05-04T08:38:04.799Z,99229.66
2023-05-04T08:40:31.426Z,99227.38
2023-05-04T08:42:58.119Z,99226.69
2023-05-04T08:45:25.228Z,99223.53
2023-05-04T08:47:52.067Z,99216.53
2023-05-04T08:50:20.227Z,99209.19
2023-05-04T08:52:47.671Z,99211.88
2023-05-04T08:55:15.082Z,99205.44
2023-05-04T08:57:42.990Z,99197.91
2023-05-04T09:00:10.998Z,99203.69
2023-05-04T09:02:37.899Z,99204.03
2023-05-04T09:05:07.667Z,99200.03
2023-05-04T09:07:36.159Z,99195.75
2023-05-04T09:10:03.183Z,99193.88
2023-05-04T09:12:29.930Z,99178.78
2023-05-04T09:14:56.687Z,99185.91
2023-05-04T09:17:26.468Z,99181.19
2023-05-04T09:19:59.704Z,99179.94
2023-05-04T09:22:28.259Z,99178.38
2023-05-04T09:25:06.357Z,99168.94
2023-05-04T09:27:33.213Z,99170.22
2023-05-04T09:29:59.825Z,99159.50
2023-05-04T09:32:26.543Z,99162.09
2023-05-04T09:34:53.800Z,99166.53
2023-05-04T09:37:24.121Z,99168.06
2023-05-04T09:39:51.732Z,99166.72
2023-05-04T09:42:20.811Z,99164.25
2023-05-04T09:44:58.436Z,99163.78
2023-05-04T09:47:30.985Z,99168.72
2023-05-04T09:49:57.710Z,99158.44
2023-05-04T09:52:25.240Z,99157.31
2023-05-04T09:54:53.723Z,99154.78
2023-05-04T09:57:23.556Z,99157.88
2023-05-04T09:59:52.274Z,99164.91
2023-05-04T10:02:23.453Z,99156.72
2023-05-04T10:04:50.612Z,99159.28
2023-05-04T10:07:17.775Z,99155.34
2023-05-04T10:09:44.672Z,99149.19
2023-05-04T10:12:12.139Z,99138.53
2023-05-04T10:14:40.237Z,99150.59
2023-05-04T10:17:14.416Z,99150.78
2023-05-04T10:19:49.237Z,99145.94
2023-05-04T10:22:22.063Z,99148.78
2023-05-04T10:25:06.709Z,99150.19
2023-05-04T10:27:42.015Z,99142.66
2023-05-04T10:30:10.971Z,99134.66
2023-05-04T10:32:40.041Z,99137.88
2023-05-04T10:35:07.883Z,99137.69
2023-05-04T10:37:36.233Z,99131.91
2023-05-04T10:40:07.885Z,99131.66
2023-05-04T10:42:41.286Z,99120.50
2023-05-04T10:45:09.418Z,99120.81
2023-05-04T10:47:40.295Z,99118.50
2023-05-04T10:50:08.059Z,99106.75
2023-05-04T10:52:45.559Z,99105.50
2023-05-04T10:55:12.318Z,99100.53
2023-05-04T10:57:46.806Z,99098.06
2023-05-04T11:00:14.706Z,99093.41
2023-05-04T11:02:42.992Z,99095.13
2023-05-04T11:05:15.918Z,99104.75
2023-05-04T11:07:42.601Z,99093.59
2023-05-04T11:10:20.300Z,99086.50
2023-05-04T11:12:47.233Z,99082.25
2023-05-04T11:15:14.069Z,99074.72
2023-05-04T11:17:48.651Z,99071.63
2023-05-04T11:20:22.242Z,99079.22
2023-05-04T11:22:49.214Z,99074.59
2023-05-04T11:25:17.090Z,99067.78
2023-05-04T11:27:44.302Z,99053.75
2023-05-04T11:30:11.299Z,99059.19
2023-05-04T11:32:38.878Z,99049.22
2023-05-04T11:35:08.183Z,99043.47
2023-05-04T11:37:39.405Z,99053.47
2023-05-04T11:40:08.600Z,99047.78
2023-05-04T11:42:35.201Z,99048.31
2023-05-04T11:45:02.897Z,99043.94
2023-05-04T11:47:29.725Z,99045.44
2023-05-04T11:49:56.436Z,99040.41
2023-05-04T11:52:25.826Z,99051.28
2023-05-04T11:54:56.992Z,99048.41
2023-05-04T11:57:23.849Z,99044.28
2023-05-04T11:59:50.653Z,99032.31
2023-05-04T12:02:17.716Z,99032.31
2023-05-04T12:04:44.484Z,99032.72
2023-05-04T12:07:11.160Z,99027.97
2023-05-04T12:09:45.824Z,99025.69
2023-05-04T12:12:12.555Z,99023.25
2023-05-04T12:14:46.768Z,99021.69
2023-05-04T12:17:13.568Z,99018.03
2023-05-04T12:19:46.679Z,99019.88
2023-05-04T12:22:13.357Z,99016.66
2023-05-04T12:24:40.687Z,99013.31
2023-05-04T12:27:14.043Z,99005.47
2023-05-04T12:29:41.181Z,98999.13
2023-05-04T12:32:08.343Z,99003.78
2023-05-04T12:34:36.652Z,98995.41
2023-05-04T12:37:03.244Z,98998.13
2023-05-04T12:39:32.369Z,98989.53
2023-05-04T12:41:59.746Z,98991.28
2023-05-04T12:44:27.772Z,98986.13
2023-05-04T12:46:54.453Z,98980.19
2023-05-04T12:49:22.371Z,98977.63
2023-05-04T12:51:51.861Z,98974.56
2023-05-04T12:54:18.556Z,98985.94
2023-05-04T12:56:45.162Z,98971.56
2023-05-04T12:59:11.791Z,98975.09
2023-05-04T13:01:41.553Z,98961.81
2023-05-04T13:04:08.260Z,98956.84
2023-05-04T13:06:35.044Z,98960.81
2023-05-04T13:09:05.339Z,98953.16
2023-05-04T13:11:32.238Z,98954.81
2023-05-04T13:13:58.919Z,98955.94
2023-05-04T13:16:26.988Z,98946.69
2023-05-04T13:18:55.577Z,98954.31
2023-05-04T13:21:22.281Z,98952.22
2023-05-04T13:23:49.024Z,98947.75
2023-05-04T13:26:15.770Z,98944.16
2023-05-04T13:28:42.641Z,98938.09
2023-05-04T13:31:09.836Z,98942.00
2023-05-04T13:33:40.156Z,98941.19
2023-05-04T13:36:08.339Z,98926.75
2023-05-04T13:38:34.981Z,98923.53
2023-05-04T13:41:01.812Z,98912.97
2023-05-04T13:43:28.598Z,98920.16
2023-05-04T13:45:57.117Z,98922.81
2023-05-04T13:48:25.719Z,98915.72
2023-05-04T13:50:52.763Z,98923.31
2023-05-04T13:53:20.758Z,98924.63
2023-05-04T13:55:49.275Z,98924.44
2023-05-04T13:58:15.885Z,98922.84
2023-05-04T14:00:43.442Z,98914.44
2023-05-04T14:03:10.202Z,98916.91
2023-05-04T14:05:36.960Z,98911.97
2023-05-04T14:08:03.927Z,98902.28
2023-05-04T14:10:32.181Z,98898.16
2023-05-04T14:12:59.071Z,98889.63
2023-05-04T14:15:27.555Z,98880.66
2023-05-04T14:17:54.269Z,98883.41
2023-05-04T14:20:20.971Z,98880.38
2023-05-04T14:22:47.596Z,98891.19
2023-05-04T14:25:14.895Z,98880.63
2023-05-04T14:27:43.389Z,98883.91
2023-05-04T14:30:10.901Z,98880.47
2023-05-04T14:32:37.526Z,98881.16
2023-05-04T14:35:08.361Z,98867.59
2023-05-04T14:37:35.871Z,98879.38
2023-05-04T14:40:03.683Z,98879.38
2023-05-04T14:42:30.370Z,98880.88
2023-05-04T14:44:58.436Z,98874.41
2023-05-04T14:47:25.209Z,98884.03
2023-05-04T14:49:51.888Z,98884.97
2023-05-04T14:52:18.575Z,98880.72
2023-05-04T14:54:45.423Z,98882.06
2023-05-04T14:57:12.128Z,98881.44
2023-05-04T14:59:38.877Z,98872.84
2023-05-04T15:02:08.194Z,98882.94
2023-05-04T15:04:35.004Z,98884.25
2023-05-04T15:07:02.401Z,98873.84
2023-05-04T15:09:29.235Z,98877.88
2023-05-04T15:11:56.003Z,98880.19
2023-05-04T15:14:22.728Z,98866.47
2023-05-04T15:16:49.506Z,98883.47
2023-05-04T15:19:17.502Z,98883.28
2023-05-04T15:21:44.186Z,98878.69
2023-05-04T15:24:11.161Z,98879.19
2023-05-04T15:26:37.783Z,98881.81
2023-05-04T15:29:04.907Z,98882.13
2023-05-04T15:31:31.669Z,98886.97
2023-05-04T15:34:00.541Z,98888.88
2023-05-04T15:36:28.611Z,98888.03
2023-05-04T15:38:55.246Z,98883.97
2023-05-04T15:41:21.942Z,98889.06
2023-05-04T15:43:48.638Z,98891.13
2023-05-04T15:46:15.314Z,98895.25
2023-05-04T15:48:42.424Z,98894.72
2023-05-04T15:51:10.936Z,98895.22
2023-05-04T15:53:39.110Z,98884.59
2023-05-04T15:56:06.335Z,98888.19
2023-05-04T15:58:33.262Z,98889.56
2023-05-04T16:01:03.861Z,98887.78
2023-05-04T16:03:31.174Z,98890.34
2023-05-04T16:05:58.055Z,98880.69
2023-05-04T16:08:24.952Z,98882.31
2023-05-04T16:10:53.613Z,98879.31
2023-05-04T16:13:20.564Z,98873.81
2023-05-04T16:15:49.692Z,98873.94
2023-05-04T16:18:16.479Z,98879.81
2023-05-04T16:20:43.185Z,98869.28
2023-05-04T16:23:10.222Z,98875.38
2023-05-04T16:25:36.815Z,98872.84
2023-05-04T16:28:05.407Z,98881.88
2023-05-04T16:30:34.310Z,98885.50
2023-05-04T16:33:01.511Z,98872.00
2023-05-04T16:35:29.658Z,98881.72
2023-05-04T16:37:56.412Z,98882.91
2023-05-04T16:40:24.102Z,98878.47
2023-05-04T16:42:50.945Z,98880.22
2023-05-04T16:45:19.442Z,98872.34
2023-05-04T16:47:46.410Z,98872.59
2023-05-04T16:50:13.521Z,98871.06
2023-05-04T16:52:41.022Z,98880.69
2023-05-04T16:55:11.335Z,98884.34
2023-05-04T16:57:39.641Z,98882.81
2023-05-04T17:00:07.278Z,98879.97
2023-05-04T17:02:35.998Z,98882.56
2023-05-04T17:05:06.658Z,98887.25
2023-05-04T17:07:34.213Z,98888.53
2023-05-04T17:10:00.872Z,98883.66
2023-05-04T17:12:28.831Z,98888.00
2023-05-04T17:14:55.663Z,98892.69
2023-05-04T17:17:22.417Z,98897.00
2023-05-04T17:22:36.883Z,98897.19
2023-05-04T17:25:03.668Z,98901.91
2023-05-04T17:27:30.778Z,98896.31
2023-05-04T17:29:57.464Z,98890.78
2023-05-04T17:32:24.257Z,98902.19
2023-05-04T17:34:52.253Z,98895.22
2023-05-04T17:37:19.144Z,98898.53
2023-05-04T17:39:47.170Z,98904.06
2023-05-04T17:42:15.909Z,98906.63
2023-05-04T17:44:43.301Z,98905.19
2023-05-04T17:47:10.740Z,98910.63
2023-05-04T17:49:37.457Z,98914.41
2023-05-04T17:52:05.742Z,98917.34
2023-05-04T17:54:32.543Z,98921.81
2023-05-04T17:56:59.387Z,98917.47
2023-05-04T17:59:26.141Z,98922.28
2023-05-04T18:01:53.356Z,98925.03
2023-05-04T18:04:20.775Z,98923.41
2023-05-04T18:06:48.771Z,98927.53
2023-05-04T18:09:19.684Z,98939.00
2023-05-04T18:11:47.100Z,98943.66
2023-05-04T18:14:13.827Z,98946.50
2023-05-04T18:16:40.467Z,98946.00
2023-05-04T18:19:07.331Z,98950.38
2023-05-04T18:21:34.948Z,98947.94
2023-05-04T18:24:01.779Z,98955.84
2023-05-04T18:26:29.977Z,98960.81
2023-05-04T18:29:04.251Z,98962.97
2023-05-04T18:34:24.578Z,98963.84
2023-05-04T18:36:51.217Z,98959.34
2023-05-04T18:39:18.829Z,98967.31
2023-05-04T18:41:46.884Z,98961.88
2023-05-04T18:44:16.653Z,98971.78
2023-05-04T18:46:43.328Z,98967.25
2023-05-04T18:49:10.205Z,98981.25
2023-05-04T18:51:36.810Z,98982.91
2023-05-04T18:54:03.696Z,98980.03
2023-05-04T18:56:31.518Z,98992.66
2023-05-04T18:59:00.072Z,98982.78
2023-05-04T19:01:27.885Z,98994.34
2023-05-04T19:03:54.836Z,98998.66
2023-05-04T19:06:21.686Z,99010.44
2023-05-04T19:09:08.924Z,99011.88
2023-05-04T19:11:36.533Z,99014.97
2023-05-04T19:14:04.666Z,99016.84
2023-05-04T19:16:31.455Z,99015.59
2023-05-04T19:18:58.093Z,99019.53
2023-05-04T19:21:25.563Z,99020.53
2023-05-04T19:23:52.168Z,99026.47
2023-05-04T19:26:19.003Z,99030.13
2023-05-04T19:28:45.869Z,99029.91
2023-05-04T19:31:14.661Z,99028.81
2023-05-04T19:33:48.559Z,99030.97
2023-05-04T19:36:16.615Z,99030.06
2023-05-04T19:38:43.252Z,99042.00
2023-05-04T19:41:10.078Z,99052.84
2023-05-04T19:43:38.562Z,99043.72
2023-05-04T19:46:05.504Z,99046.41
2023-05-04T19:48:33.776Z,99044.75
2023-05-04T19:51:00.707Z,99049.34
2023-05-04T19:53:27.323Z,99062.06
2023-05-04T19:55:54.102Z,99061.59
2023-05-04T19:58:22.614Z,99065.91
2023-05-04T20:00:49.384Z,99064.91
2023-05-04T20:03:17.346Z,99070.94
2023-05-04T20:06:06.404Z,99084.41
2023-05-04T20:08:33.218Z,99086.06
2023-05-04T20:11:00.684Z,99086.06
2023-05-04T20:13:27.401Z,99089.13
2023-05-04T20:15:54.034Z,99086.50
2023-05-04T20:18:20.948Z,99086.25
2023-05-04T20:20:48.691Z,99095.88
2023-05-04T20:23:16.866Z,99096.66
2023-05-04T20:25:43.543Z,99096.56
2023-05-04T20:28:10.795Z,99090.91
2023-05-04T20:30:37.416Z,99095.25
2023-05-04T20:33:04.217Z,99097.47
2023-05-04T20:35:31.119Z,99102.06
2023-05-04T20:37:58.049Z,99103.53
2023-05-04T20:40:26.504Z,99111.28
2023-05-04T20:42:53.319Z,99107.41
2023-05-04T20:45:20.238Z,99110.47
2023-05-04T20:47:47.051Z,99106.41
2023-05-04T20:50:13.852Z,99106.94
2023-05-04T20:52:41.298Z,99109.22
2023-05-04T20:55:08.301Z,99109.72
2023-05-04T20:57:36.716Z,99109.69
2023-05-04T21:00:03.939Z,99111.28
2023-05-04T21:02:31.254Z,99109.59
2023-05-04T21:04:57.895Z,99112.91
2023-05-04T21:07:24.549Z,99110.19
2023-05-04T21:09:55.449Z,99107.31
2023-05-04T21:12:22.061Z,99106.41
2023-05-04T21:14:50.045Z,99106.41
2023-05-04T21:17:16.690Z,99099.97
2023-05-04T21:19:43.388Z,99102.88
2023-05-04T21:22:10.030Z,99099.28
2023-05-04T21:24:36.999Z,99095.66
2023-05-04T21:27:03.740Z,99100.56
2023-05-04T21:29:30.418Z,99099.50
2023-05-04T21:31:58.433Z,99098.38
2023-05-04T21:34:25.194Z,99096.25
2023-05-04T21:36:51.823Z,99092.91
2023-05-04T21:39:18.503Z,99087.22
2023-05-04T21:41:45.105Z,99090.44
2023-05-04T21:44:11.929Z,99088.13
2023-05-04T21:46:38.607Z,99102.44
2023-05-04T21:49:07.930Z,99097.28
2023-05-04T21:51:34.593Z,99094.91
2023-05-04T21:54:02.114Z,99101.34
2023-05-04T21:56:29.010Z,99092.84
2023-05-04T21:58:55.621Z,99097.84
2023-05-04T22:01:22.474Z,99096.72
2023-05-04T22:03:49.147Z,99104.84
2023-05-04T22:06:17.548Z,99110.75
2023-05-04T22:08:44.805Z,99110.47
2023-05-04T22:11:11.537Z,99109.19
2023-05-04T22:13:38.222Z,99116.91
2023-05-04T22:16:05.147Z,99113.22
2023-05-04T22:18:31.792Z,99118.19
2023-05-04T22:20:58.393Z,99119.81
2023-05-04T22:23:26.436Z,99115.88
2023-05-04T22:25:53.299Z,99109.06
2023-05-04T22:28:20.153Z,99114.78
2023-05-04T22:30:46.940Z,99123.31
2023-05-04T22:33:13.667Z,99121.84
2023-05-04T22:35:40.406Z,99133.00
2023-05-04T22:38:07.289Z,99125.09
2023-05-04T22:40:35.811Z,99132.53
2023-05-04T22:43:02.994Z,99137.03
2023-05-04T22:45:29.620Z,99129.94
2023-05-04T22:47:56.510Z,99138.28
2023-05-04T22:50:23.300Z,99136.56
2023-05-04T22:52:50.005Z,99130.34
2023-05-04T22:55:16.818Z,99140.16
2023-05-04T22:57:44.861Z,99138.69
2023-05-04T23:00:12.211Z,99134.91
2023-05-04T23:02:39.125Z,99140.78
2023-05-04T23:05:06.541Z,99143.44
2023-05-04T23:07:33.142Z,99138.84
2023-05-04T23:10:00.302Z,99142.38
2023-05-04T23:12:27.087Z,99135.94
2023-05-04T23:14:55.133Z,99141.63
2023-05-04T23:17:22.241Z,99142.56
2023-05-04T23:19:48.934Z,99135.53
2023-05-04T23:22:15.956Z,99147.50
2023-05-04T23:24:43.140Z,99146.03
2023-05-04T23:27:11.184Z,99144.28
2023-05-04T23:29:37.810Z,99160.72
2023-05-04T23:32:06.413Z,99151.03
2023-05-04T23:34:33.179Z,99157.78
2023-05-04T23:36:59.802Z,99157.66
2023-05-04T23:39:26.465Z,99150.78
2023-05-04T23:41:54.139Z,99157.06
2023-05-04T23:44:21.333Z,99154.06
2023-05-04T23:46:48.039Z,99154.25
2023-05-04T23:49:16.587Z,99155.59
2023-05-04T23:51:43.351Z,99151.50
2023-05-04T23:54:10.253Z,99154.97
2023-05-04T23:56:36.887Z,99158.31
2023-05-04T23:59:03.770Z,99156.16
